createdAt,value
2018-05-07T00:00:37.097Z,15.60
2018-05-07T00:03:03.290Z,15.50
2018-05-07T00:05:29.461Z,15.40
2018-05-07T00:07:55.621Z,15.40
2018-05-07T00:10:21.816Z,15.30
2018-05-07T00:12:47.991Z,15.30
2018-05-07T00:15:14.191Z,15.20
2018-05-07T00:17:40.388Z,15.20
2018-05-07T00:20:06.579Z,15.10
2018-05-07T00:22:32.769Z,15.00
2018-05-07T00:24:58.949Z,15.00
2018-05-07T00:27:25.118Z,15.00
2018-05-07T00:29:52.044Z,14.80
2018-05-07T00:32:18.231Z,14.80
2018-05-07T00:34:44.414Z,14.80
2018-05-07T00:37:11.320Z,14.80
2018-05-07T00:39:37.542Z,14.70
2018-05-07T00:42:03.709Z,14.70
2018-05-07T00:44:30.645Z,14.60
2018-05-07T00:46:56.834Z,14.60
2018-05-07T00:49:23.026Z,14.60
2018-05-07T00:51:49.197Z,14.60
2018-05-07T00:54:15.530Z,14.50
2018-05-07T00:56:41.697Z,14.50
2018-05-07T00:59:08.650Z,14.40
2018-05-07T01:01:34.809Z,14.40
2018-05-07T01:04:01.001Z,14.40
2018-05-07T01:06:27.954Z,14.50
2018-05-07T01:08:54.169Z,14.50
2018-05-07T01:11:20.334Z,14.50
2018-05-07T01:13:46.506Z,14.50
2018-05-07T01:16:12.667Z,14.50
2018-05-07T01:18:38.826Z,14.50
2018-05-07T01:21:05.036Z,14.50
2018-05-07T01:23:31.199Z,14.50
2018-05-07T01:25:57.405Z,14.40
2018-05-07T01:28:23.577Z,14.50
2018-05-07T01:30:50.507Z,14.40
2018-05-07T01:33:16.676Z,14.40
2018-05-07T01:35:42.864Z,14.40
2018-05-07T01:38:09.810Z,14.30
2018-05-07T01:40:36.009Z,14.30
2018-05-07T01:43:02.260Z,14.20
2018-05-07T01:45:28.434Z,14.10
2018-05-07T01:47:54.617Z,14.10
2018-05-07T01:50:21.545Z,14.00
2018-05-07T01:52:47.697Z,14.00
2018-05-07T01:55:14.663Z,14.00
2018-05-07T01:57:40.831Z,14.00
2018-05-07T02:00:07.042Z,13.90
2018-05-07T02:02:33.203Z,13.90
2018-05-07T02:04:59.394Z,13.80
2018-05-07T02:07:25.567Z,13.80
2018-05-07T02:09:51.765Z,13.70
2018-05-07T02:12:17.934Z,13.70
2018-05-07T02:14:44.857Z,13.60
2018-05-07T02:17:11.034Z,13.60
2018-05-07T02:19:37.255Z,13.50
2018-05-07T02:22:03.422Z,13.50
2018-05-07T02:24:29.616Z,13.50
2018-05-07T02:26:55.787Z,13.40
2018-05-07T02:29:21.948Z,13.40
2018-05-07T02:31:48.124Z,13.40
2018-05-07T02:34:14.309Z,13.30
2018-05-07T02:36:40.511Z,13.30
2018-05-07T02:39:06.834Z,13.30
2018-05-07T02:41:32.931Z,13.30
2018-05-07T02:43:59.088Z,13.40
2018-05-07T02:46:25.289Z,13.40
2018-05-07T02:48:51.455Z,13.30
2018-05-07T02:51:17.637Z,13.30
2018-05-07T02:53:43.801Z,13.30
2018-05-07T02:56:09.974Z,13.20
2018-05-07T02:58:36.162Z,13.20
2018-05-07T03:01:02.383Z,13.10
2018-05-07T03:03:29.300Z,13.00
2018-05-07T03:05:55.489Z,13.00
2018-05-07T03:08:21.656Z,13.00
2018-05-07T03:10:47.859Z,13.00
2018-05-07T03:13:14.017Z,13.00
2018-05-07T03:15:40.199Z,13.00
2018-05-07T03:18:06.354Z,13.10
2018-05-07T03:20:32.551Z,13.10
2018-05-07T03:22:58.728Z,13.10
2018-05-07T03:25:25.646Z,13.00
2018-05-07T03:27:51.803Z,13.00
2018-05-07T03:30:18.751Z,13.00
2018-05-07T03:32:44.911Z,13.00
2018-05-07T03:35:11.098Z,12.90
2018-05-07T03:37:38.003Z,12.90
2018-05-07T03:40:04.227Z,12.90
2018-05-07T03:42:30.413Z,12.90
2018-05-07T03:44:56.575Z,12.90
2018-05-07T03:47:22.765Z,12.90
2018-05-07T03:49:48.934Z,12.80
2018-05-07T03:52:16.067Z,12.90
2018-05-07T03:54:42.259Z,12.90
2018-05-07T03:57:15.398Z,12.90
2018-05-07T03:59:41.586Z,12.90
2018-05-07T04:02:07.810Z,12.90
2018-05-07T04:04:34.015Z,12.80
2018-05-07T04:07:00.202Z,12.80
2018-05-07T04:09:26.382Z,12.70
2018-05-07T04:11:52.606Z,12.80
2018-05-07T04:14:18.761Z,12.80
2018-05-07T04:16:57.115Z,12.80
2018-05-07T04:19:35.459Z,12.70
2018-05-07T04:22:14.545Z,12.70
2018-05-07T04:24:40.705Z,12.80
2018-05-07T04:27:06.892Z,12.80
2018-05-07T04:29:33.063Z,12.70
2018-05-07T04:31:59.263Z,12.70
2018-05-07T04:34:25.442Z,12.80
2018-05-07T04:36:51.645Z,12.80
2018-05-07T04:39:18.572Z,12.70
2018-05-07T04:41:44.750Z,12.70
2018-05-07T04:44:10.909Z,12.70
2018-05-07T04:46:37.085Z,12.80
2018-05-07T04:49:03.323Z,12.90
2018-05-07T04:51:29.502Z,13.00
2018-05-07T04:53:55.675Z,13.00
2018-05-07T04:56:21.960Z,13.00
2018-05-07T04:58:48.204Z,13.10
2018-05-07T05:01:14.434Z,13.20
2018-05-07T05:03:40.606Z,13.20
2018-05-07T05:06:06.798Z,13.20
2018-05-07T05:08:32.988Z,13.20
2018-05-07T05:10:59.191Z,13.20
2018-05-07T05:13:25.358Z,13.20
2018-05-07T05:15:52.261Z,13.30
2018-05-07T05:18:18.469Z,13.30
2018-05-07T05:20:44.651Z,13.40
2018-05-07T05:23:11.590Z,13.50
2018-05-07T05:25:37.797Z,13.50
2018-05-07T05:28:03.985Z,13.60
2018-05-07T05:30:30.147Z,13.60
2018-05-07T05:32:56.337Z,13.70
2018-05-07T05:35:22.501Z,13.70
2018-05-07T05:37:48.681Z,13.80
2018-05-07T05:40:14.862Z,13.80
2018-05-07T05:42:41.043Z,13.80
2018-05-07T05:45:07.210Z,13.90
2018-05-07T05:47:33.422Z,13.90
2018-05-07T05:50:00.397Z,14.00
2018-05-07T05:52:26.593Z,14.10
2018-05-07T05:54:52.745Z,14.10
2018-05-07T05:57:18.970Z,14.20
2018-05-07T05:59:45.249Z,14.30
2018-05-07T06:02:11.431Z,14.30
2018-05-07T06:04:38.357Z,14.40
2018-05-07T06:07:04.630Z,14.50
2018-05-07T06:09:30.823Z,14.50
2018-05-07T06:11:57.038Z,14.60
2018-05-07T06:14:23.215Z,14.60
2018-05-07T06:16:49.410Z,14.70
2018-05-07T06:19:15.573Z,14.80
2018-05-07T06:21:41.773Z,14.90
2018-05-07T06:24:07.954Z,15.00
2018-05-07T06:26:34.126Z,15.10
2018-05-07T06:29:00.322Z,15.10
2018-05-07T06:31:26.496Z,15.20
2018-05-07T06:33:52.694Z,15.30
2018-05-07T06:36:19.577Z,15.40
2018-05-07T06:38:45.784Z,15.50
2018-05-07T06:41:12.743Z,15.60
2018-05-07T06:43:38.921Z,15.60
2018-05-07T06:46:05.194Z,15.70
2018-05-07T06:48:31.295Z,15.80
2018-05-07T06:50:57.501Z,15.90
2018-05-07T06:53:23.750Z,15.90
2018-05-07T06:55:49.934Z,16.00
2018-05-07T06:58:16.146Z,16.20
2018-05-07T07:00:42.325Z,16.30
2018-05-07T07:03:08.519Z,16.40
2018-05-07T07:05:34.690Z,16.50
2018-05-07T07:08:00.915Z,16.60
2018-05-07T07:10:27.084Z,16.60
2018-05-07T07:12:53.276Z,16.70
2018-05-07T07:15:20.185Z,16.90
2018-05-07T07:17:46.367Z,16.90
2018-05-07T07:20:12.586Z,17.00
2018-05-07T07:22:38.766Z,17.00
2018-05-07T07:25:04.960Z,17.10
2018-05-07T07:27:31.145Z,17.20
2018-05-07T07:29:57.317Z,17.20
2018-05-07T07:32:23.497Z,17.40
2018-05-07T07:34:49.674Z,17.50
2018-05-07T07:37:15.833Z,17.60
2018-05-07T07:39:42.021Z,17.70
2018-05-07T07:42:08.214Z,17.70
2018-05-07T07:44:34.394Z,17.90
2018-05-07T07:47:00.577Z,17.90
2018-05-07T07:49:26.805Z,17.90
2018-05-07T07:51:52.974Z,18.00
2018-05-07T07:54:19.966Z,18.10
2018-05-07T07:56:46.151Z,18.10
2018-05-07T07:59:12.332Z,18.10
2018-05-07T08:01:39.503Z,18.20
2018-05-07T08:04:05.646Z,18.30
2018-05-07T08:06:31.808Z,18.30
2018-05-07T08:08:58.737Z,18.60
2018-05-07T08:11:24.920Z,18.50
2018-05-07T08:13:51.109Z,18.70
2018-05-07T08:16:18.047Z,18.90
2018-05-07T08:18:44.251Z,18.90
2018-05-07T08:21:10.445Z,19.00
2018-05-07T08:23:36.644Z,19.00
2018-05-07T08:26:03.565Z,19.20
2018-05-07T08:28:29.755Z,19.10
2018-05-07T08:30:55.923Z,19.20
2018-05-07T08:33:22.103Z,19.20
2018-05-07T08:35:48.273Z,19.30
2018-05-07T08:38:14.472Z,19.40
2018-05-07T08:40:40.645Z,19.40
2018-05-07T08:43:06.953Z,19.50
2018-05-07T08:45:33.110Z,19.50
2018-05-07T08:47:59.274Z,19.70
2018-05-07T08:50:25.469Z,19.80
2018-05-07T08:52:51.721Z,19.90
2018-05-07T08:55:17.909Z,20.00
2018-05-07T08:57:44.810Z,20.10
2018-05-07T09:00:11.019Z,20.10
2018-05-07T09:02:37.186Z,20.20
2018-05-07T09:05:03.449Z,20.20
2018-05-07T09:07:30.255Z,20.30
2018-05-07T09:09:56.474Z,20.30
2018-05-07T09:12:22.661Z,20.40
2018-05-07T09:14:48.885Z,20.50
2018-05-07T09:17:15.894Z,20.50
2018-05-07T09:19:42.085Z,20.60
2018-05-07T09:22:08.291Z,20.70
2018-05-07T09:24:34.482Z,20.80
2018-05-07T09:27:01.387Z,21.00
2018-05-07T09:29:27.569Z,21.00
2018-05-07T09:31:53.735Z,21.10
2018-05-07T09:34:19.942Z,21.20
2018-05-07T09:36:46.115Z,21.30
2018-05-07T09:39:12.317Z,21.40
2018-05-07T09:41:38.510Z,21.40
2018-05-07T09:44:04.713Z,21.50
2018-05-07T09:46:30.894Z,21.60
2018-05-07T09:48:57.152Z,21.60
2018-05-07T09:51:23.300Z,21.70
2018-05-07T09:53:51.270Z,21.80
2018-05-07T09:56:17.480Z,21.70
2018-05-07T09:58:56.706Z,21.80
2018-05-07T10:01:22.887Z,21.90
2018-05-07T10:03:49.086Z,21.90
2018-05-07T10:06:15.337Z,22.00
2018-05-07T10:08:41.509Z,22.00
2018-05-07T10:11:07.719Z,22.00
2018-05-07T10:13:34.706Z,22.10
2018-05-07T10:16:00.922Z,22.10
2018-05-07T10:18:27.322Z,22.20
2018-05-07T10:20:53.818Z,22.30
2018-05-07T10:23:20.097Z,22.30
2018-05-07T10:25:46.425Z,22.40
2018-05-07T10:28:12.666Z,22.50
2018-05-07T10:30:38.871Z,22.50
2018-05-07T10:33:05.213Z,22.50
2018-05-07T10:35:31.411Z,22.50
2018-05-07T10:37:57.598Z,22.50
2018-05-07T10:40:24.542Z,22.70
2018-05-07T10:42:51.446Z,22.80
2018-05-07T10:45:17.710Z,22.70
2018-05-07T10:47:43.885Z,22.80
2018-05-07T10:50:10.114Z,22.90
2018-05-07T10:52:36.290Z,23.00
2018-05-07T10:55:02.506Z,23.00
2018-05-07T10:57:28.673Z,23.00
2018-05-07T10:59:54.847Z,23.00
2018-05-07T11:02:21.052Z,23.00
2018-05-07T11:04:47.259Z,23.00
2018-05-07T11:07:13.466Z,23.00
2018-05-07T11:09:39.657Z,23.10
2018-05-07T11:12:05.857Z,23.10
2018-05-07T11:14:32.042Z,23.10
2018-05-07T11:16:58.194Z,23.30
2018-05-07T11:19:24.351Z,23.30
2018-05-07T11:21:50.541Z,23.40
2018-05-07T11:24:16.719Z,23.50
2018-05-07T11:26:42.946Z,23.50
2018-05-07T11:29:09.127Z,23.60
2018-05-07T11:31:35.317Z,23.60
2018-05-07T11:34:02.337Z,23.60
2018-05-07T11:36:28.529Z,23.60
2018-05-07T11:38:55.534Z,23.70
2018-05-07T11:41:21.750Z,23.70
2018-05-07T11:43:47.990Z,23.80
2018-05-07T11:46:14.173Z,23.80
2018-05-07T11:48:40.349Z,23.90
2018-05-07T11:51:07.393Z,24.00
2018-05-07T11:53:33.562Z,24.00
2018-05-07T11:55:59.782Z,24.00
2018-05-07T11:58:25.995Z,24.10
2018-05-07T12:00:52.177Z,24.20
2018-05-07T12:03:19.118Z,24.30
2018-05-07T12:05:48.139Z,24.30
2018-05-07T12:08:14.312Z,24.30
2018-05-07T12:10:40.486Z,24.40
2018-05-07T12:13:06.646Z,24.40
2018-05-07T12:15:32.849Z,24.50
2018-05-07T12:17:59.751Z,24.60
2018-05-07T12:20:25.944Z,24.50
2018-05-07T12:22:52.093Z,24.60
2018-05-07T12:25:18.277Z,24.60
2018-05-07T12:27:44.446Z,24.50
2018-05-07T12:30:10.663Z,24.60
2018-05-07T12:32:37.065Z,24.60
2018-05-07T12:35:04.113Z,24.60
2018-05-07T12:37:30.298Z,24.60
2018-05-07T12:39:56.482Z,24.70
2018-05-07T12:42:22.662Z,24.70
2018-05-07T12:44:48.864Z,24.70
2018-05-07T12:47:15.069Z,24.80
2018-05-07T12:49:41.231Z,24.80
2018-05-07T12:52:07.447Z,24.70
2018-05-07T12:54:33.640Z,24.70
2018-05-07T12:56:59.844Z,24.80
2018-05-07T12:59:26.035Z,24.70
2018-05-07T13:01:52.251Z,24.80
2018-05-07T13:04:18.458Z,24.80
2018-05-07T13:06:44.686Z,24.80
2018-05-07T13:09:10.858Z,24.90
2018-05-07T13:11:37.062Z,24.90
2018-05-07T13:14:03.268Z,25.00
2018-05-07T13:16:29.457Z,25.00
2018-05-07T13:18:56.373Z,24.90
2018-05-07T13:21:22.557Z,24.90
2018-05-07T13:23:48.873Z,25.00
2018-05-07T13:26:15.082Z,25.00
2018-05-07T13:28:42.080Z,25.00
2018-05-07T13:31:08.286Z,25.00
2018-05-07T13:33:34.516Z,25.10
2018-05-07T13:36:00.780Z,25.10
2018-05-07T13:38:26.958Z,25.20
2018-05-07T13:40:53.161Z,25.30
2018-05-07T13:43:19.348Z,25.40
2018-05-07T13:45:45.549Z,25.40
2018-05-07T13:48:11.751Z,25.40
2018-05-07T13:50:38.669Z,25.50
2018-05-07T13:53:04.854Z,25.50
2018-05-07T13:55:31.043Z,25.60
2018-05-07T13:57:57.989Z,25.60
2018-05-07T14:00:24.150Z,25.60
2018-05-07T14:02:50.367Z,25.60
2018-05-07T14:05:16.526Z,25.70
2018-05-07T14:07:42.713Z,25.70
2018-05-07T14:10:08.874Z,25.80
2018-05-07T14:12:35.126Z,25.80
2018-05-07T14:15:01.332Z,25.80
2018-05-07T14:17:27.557Z,25.80
2018-05-07T14:19:53.762Z,25.70
2018-05-07T14:22:19.978Z,25.80
2018-05-07T14:24:46.166Z,25.80
2018-05-07T14:27:12.371Z,25.90
2018-05-07T14:29:38.541Z,25.90
2018-05-07T14:32:05.470Z,25.90
2018-05-07T14:34:31.666Z,25.90
2018-05-07T14:36:57.867Z,25.90
2018-05-07T14:39:24.096Z,25.80
2018-05-07T14:41:50.278Z,25.80
2018-05-07T14:44:16.493Z,25.80
2018-05-07T14:46:42.700Z,25.90
2018-05-07T14:49:08.866Z,25.90
2018-05-07T14:51:36.062Z,25.90
2018-05-07T14:54:02.291Z,25.90
2018-05-07T14:56:28.454Z,26.00
2018-05-07T14:58:54.704Z,26.00
2018-05-07T15:01:21.642Z,26.00
2018-05-07T15:03:48.601Z,26.00
2018-05-07T15:06:14.804Z,26.00
2018-05-07T15:08:41.005Z,26.10
2018-05-07T15:11:07.290Z,26.10
2018-05-07T15:13:33.605Z,26.10
2018-05-07T15:15:59.735Z,26.10
2018-05-07T15:18:25.921Z,26.10
2018-05-07T15:20:52.095Z,26.10
2018-05-07T15:23:18.443Z,26.10
2018-05-07T15:25:44.549Z,26.10
2018-05-07T15:28:10.786Z,26.10
2018-05-07T15:30:36.958Z,26.10
2018-05-07T15:33:03.261Z,26.00
2018-05-07T15:35:29.438Z,26.00
2018-05-07T15:37:56.369Z,26.00
2018-05-07T15:40:22.594Z,26.00
2018-05-07T15:42:48.780Z,26.20
2018-05-07T15:45:14.961Z,26.90
2018-05-07T15:47:41.913Z,29.30
2018-05-07T15:50:08.094Z,29.20
2018-05-07T15:52:34.289Z,30.50
2018-05-07T15:55:00.486Z,31.60
2018-05-07T15:57:26.679Z,32.70
2018-05-07T15:59:52.849Z,34.00
2018-05-07T16:02:19.771Z,35.10
2018-05-07T16:04:45.957Z,35.10
2018-05-07T16:07:12.147Z,35.90
2018-05-07T16:09:39.102Z,37.30
2018-05-07T16:12:05.279Z,37.20
2018-05-07T16:14:31.481Z,37.50
2018-05-07T16:16:57.772Z,37.60
2018-05-07T16:19:23.984Z,37.70
2018-05-07T16:21:50.171Z,37.90
2018-05-07T16:24:16.389Z,38.00
2018-05-07T16:26:42.582Z,38.10
2018-05-07T16:29:09.526Z,37.50
2018-05-07T16:31:35.706Z,37.50
2018-05-07T16:34:01.905Z,37.30
2018-05-07T16:36:28.121Z,37.60
2018-05-07T16:38:54.332Z,37.20
2018-05-07T16:41:21.253Z,36.90
2018-05-07T16:43:47.430Z,36.90
2018-05-07T16:46:13.614Z,37.30
2018-05-07T16:48:39.819Z,37.10
2018-05-07T16:51:06.286Z,36.90
2018-05-07T16:53:32.450Z,36.40
2018-05-07T16:55:58.617Z,36.30
2018-05-07T16:58:24.809Z,36.00
2018-05-07T17:00:51.741Z,36.00
2018-05-07T17:03:17.937Z,36.00
2018-05-07T17:05:44.845Z,36.00
2018-05-07T17:08:11.033Z,36.00
2018-05-07T17:10:37.549Z,36.00
2018-05-07T17:13:03.751Z,35.70
2018-05-07T17:15:29.935Z,35.40
2018-05-07T17:17:57.141Z,35.60
2018-05-07T17:20:24.200Z,35.50
2018-05-07T17:22:50.406Z,35.40
2018-05-07T17:25:16.687Z,35.40
2018-05-07T17:27:42.858Z,35.10
2018-05-07T17:30:09.488Z,35.00
2018-05-07T17:32:36.316Z,34.60
2018-05-07T17:35:02.927Z,34.60
2018-05-07T17:37:29.105Z,34.50
2018-05-07T17:39:55.322Z,34.00
2018-05-07T17:42:22.073Z,33.50
2018-05-07T17:45:12.540Z,33.10
2018-05-07T17:47:50.813Z,32.80
2018-05-07T17:50:17.082Z,31.90
2018-05-07T17:52:43.406Z,31.20
2018-05-07T17:55:09.605Z,30.70
2018-05-07T17:57:35.777Z,30.50
2018-05-07T18:00:02.137Z,30.60
2018-05-07T18:02:28.499Z,31.10
2018-05-07T18:04:55.500Z,31.40
2018-05-07T18:07:21.981Z,31.30
2018-05-07T18:09:48.551Z,31.60
2018-05-07T18:12:14.801Z,31.50
2018-05-07T18:14:41.070Z,31.50
2018-05-07T18:17:07.259Z,31.40
2018-05-07T18:19:33.451Z,31.40
2018-05-07T18:21:59.658Z,31.30
2018-05-07T18:24:25.884Z,31.30
2018-05-07T18:26:52.175Z,31.00
2018-05-07T18:29:19.238Z,30.70
2018-05-07T18:31:45.413Z,30.60
2018-05-07T18:34:11.634Z,30.40
2018-05-07T18:36:38.003Z,30.20
2018-05-07T18:39:04.987Z,29.70
2018-05-07T18:41:31.284Z,29.60
2018-05-07T18:43:58.241Z,28.90
2018-05-07T18:46:24.516Z,28.80
2018-05-07T18:48:50.838Z,28.50
2018-05-07T18:51:17.040Z,28.10
2018-05-07T18:53:43.242Z,27.80
2018-05-07T18:56:10.255Z,27.00
2018-05-07T18:58:36.466Z,26.90
2018-05-07T19:01:02.702Z,26.50
2018-05-07T19:03:28.901Z,26.10
2018-05-07T19:05:55.136Z,25.60
2018-05-07T19:08:21.357Z,25.30
2018-05-07T19:10:47.760Z,25.00
2018-05-07T19:13:14.670Z,24.50
2018-05-07T19:15:40.881Z,24.50
2018-05-07T19:18:07.074Z,24.20
2018-05-07T19:20:33.554Z,24.10
2018-05-07T19:22:59.749Z,23.80
2018-05-07T19:25:26.123Z,23.70
2018-05-07T19:27:52.306Z,23.70
2018-05-07T19:30:18.517Z,23.50
2018-05-07T19:32:44.712Z,23.30
2018-05-07T19:35:11.673Z,22.90
2018-05-07T19:37:37.989Z,22.90
2018-05-07T19:40:04.591Z,22.80
2018-05-07T19:42:30.845Z,22.70
2018-05-07T19:44:57.067Z,22.50
2018-05-07T19:47:23.249Z,22.50
2018-05-07T19:49:49.490Z,22.40
2018-05-07T19:52:16.383Z,22.30
2018-05-07T19:54:43.351Z,22.30
2018-05-07T19:57:10.185Z,22.20
2018-05-07T19:59:36.514Z,22.10
2018-05-07T20:02:02.893Z,22.10
2018-05-07T20:04:29.108Z,22.00
2018-05-07T20:06:55.390Z,21.80
2018-05-07T20:09:22.349Z,21.60
2018-05-07T20:11:48.703Z,21.60
2018-05-07T20:14:15.171Z,21.60
2018-05-07T20:16:41.371Z,21.50
2018-05-07T20:19:07.594Z,21.40
2018-05-07T20:21:33.843Z,21.20
2018-05-07T20:24:00.786Z,21.00
2018-05-07T20:26:27.023Z,21.00
2018-05-07T20:28:53.380Z,21.00
2018-05-07T20:31:20.314Z,20.90
2018-05-07T20:33:46.527Z,20.90
2018-05-07T20:36:12.762Z,20.80
2018-05-07T20:38:38.948Z,20.80
2018-05-07T20:41:05.182Z,20.70
2018-05-07T20:43:31.402Z,20.60
2018-05-07T20:45:57.639Z,20.70
2018-05-07T20:48:23.862Z,20.60
2018-05-07T20:50:50.111Z,20.60
2018-05-07T20:53:16.322Z,20.50
2018-05-07T20:55:42.586Z,20.40
2018-05-07T20:58:08.798Z,20.30
2018-05-07T21:00:35.031Z,20.20
2018-05-07T21:03:01.226Z,20.20
2018-05-07T21:05:28.744Z,20.10
2018-05-07T21:07:55.007Z,20.10
2018-05-07T21:10:21.299Z,20.00
2018-05-07T21:12:47.466Z,19.90
2018-05-07T21:15:14.687Z,19.90
2018-05-07T21:17:40.884Z,19.90
2018-05-07T21:20:08.074Z,19.90
2018-05-07T21:22:34.301Z,19.80
2018-05-07T21:25:00.498Z,19.80
2018-05-07T21:27:26.694Z,19.70
2018-05-07T21:29:52.869Z,19.70
2018-05-07T21:32:19.864Z,19.70
2018-05-07T21:34:46.042Z,19.60
2018-05-07T21:37:12.298Z,19.60
2018-05-07T21:39:38.623Z,19.50
2018-05-07T21:42:04.979Z,19.50
2018-05-07T21:44:31.162Z,19.50
2018-05-07T21:46:57.386Z,19.40
2018-05-07T21:49:24.325Z,19.20
2018-05-07T21:51:51.311Z,19.20
2018-05-07T21:54:17.506Z,19.10
2018-05-07T21:56:43.743Z,19.10
2018-05-07T21:59:09.939Z,18.90
2018-05-07T22:01:36.134Z,18.90
2018-05-07T22:04:02.359Z,18.90
2018-05-07T22:06:28.561Z,18.90
2018-05-07T22:08:54.820Z,18.80
2018-05-07T22:11:21.023Z,18.80
2018-05-07T22:13:47.196Z,18.80
2018-05-07T22:16:13.390Z,18.70
2018-05-07T22:18:39.574Z,18.60
2018-05-07T22:21:06.506Z,18.50
2018-05-07T22:23:32.671Z,18.50
2018-05-07T22:25:58.859Z,18.40
2018-05-07T22:28:25.809Z,18.30
2018-05-07T22:30:51.987Z,18.20
2018-05-07T22:33:18.288Z,18.10
2018-05-07T22:35:44.539Z,18.00
2018-05-07T22:38:10.724Z,17.90
2018-05-07T22:40:36.908Z,17.80
2018-05-07T22:43:03.094Z,17.80
2018-05-07T22:45:29.254Z,17.70
2018-05-07T22:47:55.443Z,17.70
2018-05-07T22:50:21.762Z,17.60
2018-05-07T22:52:48.690Z,17.50
2018-05-07T22:55:18.883Z,17.40
2018-05-07T22:57:45.154Z,17.50
2018-05-07T23:00:11.329Z,17.40
2018-05-07T23:02:37.550Z,17.40
2018-05-07T23:05:03.731Z,17.30
2018-05-07T23:07:30.649Z,17.20
2018-05-07T23:09:56.829Z,17.20
2018-05-07T23:12:23.006Z,17.30
2018-05-07T23:14:49.165Z,17.20
2018-05-07T23:17:15.413Z,17.20
2018-05-07T23:19:42.382Z,17.20
2018-05-07T23:22:08.588Z,17.10
2018-05-07T23:24:34.760Z,17.00
2018-05-07T23:27:00.963Z,17.00
2018-05-07T23:29:27.130Z,16.90
2018-05-07T23:31:53.317Z,16.90
2018-05-07T23:34:19.494Z,16.80
2018-05-07T23:36:45.689Z,16.80
2018-05-07T23:39:11.873Z,16.80
2018-05-07T23:41:38.106Z,16.70
2018-05-07T23:44:04.376Z,16.60
2018-05-07T23:46:30.560Z,16.60
2018-05-07T23:48:56.785Z,16.60
2018-05-07T23:51:22.965Z,16.50
2018-05-07T23:53:49.898Z,16.40
2018-05-07T23:56:16.085Z,16.40
2018-05-07T23:58:42.276Z,16.40
